AirNav   ATP
 
 1646 users online  

36OH Wright's Field Airport
Conesville, Ohio, USA

GOING TO CONESVILLE?


FAA INFORMATION EFFECTIVE 20 JULY 2017

Location

FAA Identifier: 36OH
Lat/Long: 40-11-25.2530N / 081-58-26.4860W
40-11.420883N / 081-58.441433W
40.1903481 / -81.9740239
(estimated)
Elevation: 770 ft. / 235 m (estimated)
Variation: 06W (1990)
From city: 5 miles W of CONESVILLE, OH
Time zone: UTC -4 (UTC -5 during Standard Time)
Zip code: 43811

Airport Operations

Airport use: Private use. Permission required prior to landing
Activation date: 10/1994
Control tower: no
ARTCC: INDIANAPOLIS CENTER
FSS: CLEVELAND FLIGHT SERVICE STATION
Attendance: UNATNDD
Wind indicator: yes
Segmented circle: no

Airport Communications

WX AWOS-3 at I40 (9 nm NE): 118.875 (740-295-7370)
WX ASOS at ZZV (15 nm S): 111.4 (740-453-8139)

Nearby radio navigation aids

VOR radial/distance  VOR name  Freq  Var
ZZVr352/15.4ZANESVILLE VOR/DME111.4006W
TVTr159/17.5TIVERTON VOR/DME116.5003W
CTWr271/22.9NEWCOMERSTOWN VOR/DME111.8007W
APEr091/28.3APPLETON VORTAC116.7006W

 
NDB name  Hdg/Dist  Freq  Var  ID
ZANESVILLE358/17.220406WHRA .... .-. .-
NEWARK072/24.552406WHEH .... . ....

Airport Services

Runway Information

Runway 6/24

Dimensions: 1800 x 80 ft. / 549 x 24 m
Surface: turf
RUNWAY 6  RUNWAY 24
Traffic pattern: leftright
Obstructions: 115 ft. pline, 1800 ft. from runway
180 FT HILL 75 FT S.
10 ft. tank, 30 ft. from runway

Airport Ownership and Management from official FAA records

Ownership: Privately-owned
Owner: CARL WRIGHT
16139 CR6
CONESVILLE, OH 43811
Phone 614-829-2409
Manager: CARL WRIGHT
16139 CR6
CONESVILLE, OH 43811
Phone 614-829-2409

Airport Operational Statistics

Aircraft based on the field: 1
Single engine airplanes: 1
    

Instrument Procedures

There are no published instrument procedures at 36OH.

Some nearby airports with instrument procedures:

I40 - Richard Downing Airport (9 nm NE)
KZZV - Zanesville Municipal Airport (15 nm S)
10G - Holmes County Airport (21 nm N)
KCDI - Cambridge Municipal Airport (22 nm SE)
KVTA - Newark-Heath Airport (24 nm SW)
 
Loc | Ops | Rwys | IFR | FBO | Links
Com | Nav | Svcs | Stats | Notes

City of Findlay
 
Area around 36OH (Wright's Field Airport)
 
Road maps at: MapQuest Bing Google
 
Aerial photo
No photo
 
Sectional chart

 
Airport distance calculator
Flying to Wright's Field Airport? Find the distance to fly.

From to 36OH

Sunrise and sunset
Times for 26-Jul-2017
 Local
(UTC-4)
 Zulu
(UTC)
Morning civil twilight05:5009:50
Sunrise06:2110:21
Sunset20:4700:47
Evening civil twilight21:1801:18

Current date and time
Zulu (UTC)  26-Jul-2017 19:50:33
Local (UTC-4)  26-Jul-2017 15:50:33
 
METAR
KZZV 
15nm S 
261853Z AUTO VRB03KT 10SM CLR 26/16 A3013 RMK AO2 SLP197 T02610156
KCDI 
22nm SE 
261932Z AUTO 18005KT 7SM CLR 27/17 A3011 RMK AO2 T02700166
KVTA 
25nm SW 
261854Z AUTO 17006KT 10SM CLR 26/17 A3012 RMK AO2 SLP195 T02610172
K4I3 
27nm W 
261940Z AUTO 23006KT 10SM SCT032 27/19 A3013 RMK AO2
TAF
KZZV 
15nm S 
261721Z 2618/2718 19002KT P6SM SCT250 FM271000 00000KT 4SM BR OVC250 FM271140 21003KT P6SM OVC050 PROB30 2715/2718 5SM -SHRA OVC050
NOTAMs
Click for the latest NOTAMs
NOTAMs are issued by the DoD/FAA and will open in a separate window not controlled by AirNav.

 

 
 

Would you like to see your business listed on this page?

 If your business provides an interesting product or service to pilots, flight crews, aircraft, or users of the Wright's Field Airport, you should consider listing it here.  To start the listing process, click on the button below
 
Add a business
 

Other Pages about Wright's Field Airport

Update a link
 
Copyright © AirNav, LLC. All rights reserved. Privacy Policy  Contact